Thunder radar more information blitzortung!


Radar de pluja more information rain snow radar


Visita la nostra xarxa de llocs de meteo:

Template documentation
and downloads

And another site



No particular awareness of the weather is required.    There are no Weather-warnings

Pagina Historial Weather Underground text

Diari Resum May 5, 2017 Unitats:  Imperial    Mètric   Tant
« Previous Dia
SegĂźent Dia »
Diari Setmana Mensual Anual Personalitzada
  Maxima: Minima: Media:
Temperatura: 71.4 °F 53.4 °F 63.3 °F
Punt de rosada: 56.1 °F 44.2 °F 48.7 °F
Humitat: 84 % 44 % 60 %
Wind Speed: 17.3 mph 0 mph 6 mph
RĂ fegues de vent: 17.3 mph - -
Vent:- - East
Pression baro: 30 in 29.8 in -
Precipitacions: 0 in    
Historical Graphs
 
 
Dades de taula per May 5, 2017
Temps Temperatura Punt de rosada Pression baro Vent Wind Speed RĂ fegues de vent Humitat Rainfall Rate (Hourly)
00:01 57.9 °F 51.8 °F 30 in NNE 2.3 mph 2.3 mph 80 % 0 in
00:05 54.7 °F 49.6 °F 29.9 in NE 2 mph 2 mph 83 % 0 in
00:06 57.9 °F 52.2 °F 30 in NE 2.3 mph 2.3 mph 81 % 0 in
00:11 57.9 °F 51.8 °F 30 in NNE 2.3 mph 2.3 mph 80 % 0 in
00:15 54.7 °F 49.6 °F 29.9 in NE 2 mph 3 mph 83 % 0 in
00:25 54.7 °F 49.6 °F 29.9 in ENE 3 mph 3 mph 83 % 0 in
00:35 54.7 °F 49.6 °F 29.9 in ENE 2 mph 3 mph 83 % 0 in
00:45 54.5 °F 49.5 °F 29.9 in ENE 1 mph 3 mph 83 % 0 in
00:55 54.3 °F 49.3 °F 29.9 in NE 2 mph 3 mph 83 % 0 in
01:05 54.3 °F 49.3 °F 29.9 in NE 2 mph 3 mph 83 % 0 in
01:15 54 °F 49.3 °F 29.9 in NE 2 mph 3 mph 84 % 0 in
01:25 53.8 °F 49.1 °F 29.9 in NNE 2 mph 3 mph 84 % 0 in
01:35 53.6 °F 48.9 °F 29.9 in NNE 3 mph 4 mph 84 % 0 in
01:45 53.6 °F 48.9 °F 29.9 in NE 3 mph 4 mph 84 % 0 in
01:55 53.6 °F 48.9 °F 29.9 in NE 2 mph 3 mph 84 % 0 in
02:05 53.4 °F 48.7 °F 30 in NE 1 mph 3 mph 84 % 0 in
02:15 53.8 °F 49.1 °F 30 in NE 2 mph 2 mph 84 % 0 in
02:25 53.8 °F 49.1 °F 30 in NE 2 mph 3 mph 84 % 0 in
02:35 54 °F 49.3 °F 30 in NE 3 mph 5 mph 84 % 0 in
02:45 54 °F 49.3 °F 30 in NE 2 mph 3 mph 84 % 0 in
02:55 54.1 °F 49.5 °F 30 in Calm   3 mph 84 % 0 in
03:05 54.1 °F 49.5 °F 30 in NE 2 mph 3 mph 84 % 0 in
03:15 54.3 °F 49.6 °F 30 in NNE 3 mph 4 mph 84 % 0 in
03:25 54.7 °F 49.8 °F 30 in NNE 5 mph 6 mph 84 % 0 in
03:35 55.2 °F 50.5 °F 30 in NE 3 mph 8 mph 84 % 0 in
03:45 55.9 °F 51.3 °F 30 in ENE 3 mph 6 mph 84 % 0 in
03:55 56.3 °F 51.3 °F 30 in NE 5 mph 5 mph 83 % 0 in
04:05 56.5 °F 51.1 °F 29.9 in ENE 5 mph 7 mph 82 % 0 in
04:15 56.8 °F 51.4 °F 29.9 in East 3 mph 4 mph 82 % 0 in
04:25 57 °F 51.6 °F 30 in East 5 mph 7 mph 82 % 0 in
04:35 57.2 °F 51.4 °F 29.9 in ENE 2 mph 5 mph 81 % 0 in
04:45 57.6 °F 51.8 °F 29.9 in ENE 5 mph 7 mph 81 % 0 in
04:55 58.1 °F 52 °F 30 in ENE 5 mph 6 mph 80 % 0 in
05:05 58.6 °F 52.2 °F 29.9 in NE 5 mph 8 mph 79 % 0 in
05:15 59.5 °F 53.1 °F 29.9 in NE 5 mph 6 mph 79 % 0 in
05:25 60.3 °F 53.4 °F 30 in ENE 5 mph 6 mph 78 % 0 in
05:35 60.8 °F 53.2 °F 30 in ENE 5 mph 8 mph 76 % 0 in
10:42 60.8 °F 52.9 °F 30 in NNE 4.6 mph 4.6 mph 75 % 0 in
10:47 61 °F 53.1 °F 30 in East 4.6 mph 4.6 mph 75 % 0 in
10:52 61.2 °F 52.9 °F 30 in ESE 5.8 mph 5.8 mph 74 % 0 in
10:57 61.3 °F 53.1 °F 30 in ENE 4.6 mph 4.6 mph 74 % 0 in
11:02 61.9 °F 53.1 °F 30 in ESE 5.9 mph 5.9 mph 73 % 0 in
11:07 62.8 °F 52.5 °F 30 in ENE 3.5 mph 3.5 mph 69 % 0 in
11:12 62.4 °F 51.6 °F 30 in SE 5.8 mph 5.8 mph 68 % 0 in
11:17 63.1 °F 52.3 °F 30 in SW 2.3 mph 2.3 mph 68 % 0 in
11:22 64 °F 54.1 °F 30 in West 2.4 mph 2.4 mph 70 % 0 in
11:27 64.8 °F 54.3 °F 30 in West 3.5 mph 3.5 mph 69 % 0 in
11:32 64.9 °F 54.5 °F 30 in WSW 2.3 mph 2.3 mph 69 % 0 in
11:37 65.3 °F 54.9 °F 30 in NNW 2.3 mph 2.3 mph 69 % 0 in
11:42 66.2 °F 54.5 °F 30 in ESE 1.4 mph 1.4 mph 66 % 0 in
11:47 67.3 °F 55.6 °F 30 in SW 2.3 mph 2.3 mph 66 % 0 in
11:52 67.5 °F 56.1 °F 30 in WSW 3.3 mph 3.3 mph 67 % 0 in
11:57 67.8 °F 55.6 °F 30 in SSW 2.3 mph 2.3 mph 65 % 0 in
12:02 67.8 °F 55.2 °F 30 in SW 2.3 mph 2.3 mph 64 % 0 in
12:07 67.3 °F 54.3 °F 30 in ENE 2 mph 2 mph 63 % 0 in
12:12 66.4 °F 53.1 °F 30 in ESE 3.5 mph 3.5 mph 62 % 0 in
12:17 66.9 °F 53.4 °F 30 in East 1.2 mph   62 % 0 in
12:22 66.6 °F 53.1 °F 30 in NNE 3.5 mph 3.5 mph 62 % 0 in
12:27 66.2 °F 52.3 °F 30 in ESE 3.5 mph 3.5 mph 61 % 0 in
12:32 66.2 °F 52.9 °F 30 in East 2.4 mph 2.4 mph 62 % 0 in
12:37 65.7 °F 52.3 °F 30 in ESE 2.4 mph 2.4 mph 62 % 0 in
12:42 66 °F 53.1 °F 30 in East 2.9 mph 2.9 mph 63 % 0 in
12:47 66 °F 53.1 °F 30 in NNE 4 mph 4 mph 63 % 0 in
12:52 66.4 °F 53.1 °F 30 in ENE 4.6 mph 4.6 mph 62 % 0 in
12:57 66.4 °F 53.1 °F 30 in East 8.5 mph 8.5 mph 62 % 0 in
13:02 66.4 °F 53.1 °F 30 in ENE 5.8 mph 5.8 mph 62 % 0 in
13:07 66.6 °F 52.7 °F 30 in ENE 5.8 mph 5.8 mph 61 % 0 in
13:13 67.3 °F 53.4 °F 29.9 in East 8.1 mph 8.1 mph 61 % 0 in
13:18 67.6 °F 53.2 °F 29.9 in ENE 9.2 mph 9.2 mph 60 % 0 in
13:23 68 °F 52.2 °F 29.9 in NNE 9.2 mph 9.2 mph 57 % 0 in
13:28 67.5 °F 52.2 °F 29.9 in ESE 10.4 mph 10.4 mph 58 % 0 in
13:33 67.8 °F 51.4 °F 29.9 in East 8.1 mph 8.1 mph 56 % 0 in
13:38 67.5 °F 49.3 °F 29.9 in ESE 13.8 mph 13.8 mph 52 % 0 in
13:43 68 °F 50.2 °F 29.9 in ESE 8.1 mph 8.1 mph 53 % 0 in
13:48 68.5 °F 50.2 °F 29.9 in SE 10.4 mph 10.4 mph 52 % 0 in
13:53 68.7 °F 49.3 °F 29.9 in ESE 10.4 mph 10.4 mph 50 % 0 in
13:58 68.9 °F 49.5 °F 29.9 in SE 11.5 mph 11.5 mph 50 % 0 in
14:03 69.6 °F 50.7 °F 29.9 in East 8.1 mph 8.1 mph 51 % 0 in
14:08 69.8 °F 50.4 °F 29.9 in NNE 5.8 mph 5.8 mph 50 % 0 in
14:13 70.5 °F 51.1 °F 29.8 in ENE 6.9 mph 6.9 mph 50 % 0 in
14:18 70.7 °F 51.1 °F 29.8 in East 5.8 mph 5.8 mph 50 % 0 in
14:23 71.4 °F 51.8 °F 29.8 in ENE 9.2 mph 9.2 mph 50 % 0 in
14:28 71.2 °F 51.6 °F 29.9 in ESE 6.9 mph 6.9 mph 50 % 0 in
14:33 70.7 °F 50.5 °F 29.9 in SE 11.5 mph 11.5 mph 49 % 0 in
14:38 71.4 °F 51.3 °F 29.9 in ESE 10.2 mph 10.2 mph 49 % 0 in
14:43 71.2 °F 51.1 °F 29.9 in ESE 6.9 mph 6.9 mph 49 % 0 in
14:48 71.2 °F 50.5 °F 29.9 in ESE 8.1 mph 8.1 mph 48 % 0 in
14:53 70.7 °F 50 °F 29.9 in ENE 8.1 mph 8.1 mph 48 % 0 in
14:58 71.1 °F 49.8 °F 29.9 in ENE 12.7 mph 12.7 mph 47 % 0 in
15:03 70.3 °F 48.6 °F 29.9 in ESE 15 mph 15 mph 46 % 0 in
15:08 70 °F 48.7 °F 29.9 in East 10.4 mph 10.4 mph 47 % 0 in
15:13 69.6 °F 47.8 °F 29.9 in ESE 13.8 mph 13.8 mph 46 % 0 in
15:18 69.4 °F 47.8 °F 29.9 in ENE 17.3 mph 17.3 mph 46 % 0 in
15:23 70.3 °F 48.6 °F 29.9 in East 5.8 mph 5.8 mph 46 % 0 in
15:28 69.8 °F 46.9 °F 29.9 in NNE 8.1 mph 8.1 mph 44 % 0 in
15:33 70 °F 47.7 °F 29.9 in ENE 9.7 mph 9.7 mph 45 % 0 in
15:38 70.2 °F 48.4 °F 29.9 in East 10.4 mph 10.4 mph 46 % 0 in
15:43 69.8 °F 48 °F 29.9 in ESE 13.5 mph 13.5 mph 46 % 0 in
15:48 69.4 °F 48.9 °F 29.9 in SE 11.5 mph 11.5 mph 48 % 0 in
15:53 68.7 °F 48.7 °F 29.9 in ESE 11.5 mph 11.5 mph 49 % 0 in
15:58 68.7 °F 48.7 °F 29.9 in ESE 12.7 mph 12.7 mph 49 % 0 in
16:03 68.4 °F 48.6 °F 29.9 in SSE 12.7 mph 12.7 mph 49 % 0 in
16:08 68 °F 48.7 °F 29.9 in ESE 8.1 mph 8.1 mph 50 % 0 in
16:13 68.2 °F 48.7 °F 29.9 in ESE 13.8 mph 13.8 mph 50 % 0 in
16:18 67.8 °F 48.9 °F 29.9 in ENE 12.7 mph 12.7 mph 51 % 0 in
16:23 68 °F 49.6 °F 29.9 in East 11.5 mph 11.5 mph 52 % 0 in
16:28 68 °F 49.6 °F 29.9 in ENE 10.4 mph 10.4 mph 52 % 0 in
16:33 68 °F 49.6 °F 29.9 in ESE 9.2 mph 9.2 mph 52 % 0 in
16:38 67.8 °F 50.2 °F 29.9 in ESE 10.4 mph 10.4 mph 53 % 0 in
16:43 67.8 °F 50.2 °F 29.8 in ENE 8.1 mph 8.1 mph 53 % 0 in
16:48 68 °F 50.2 °F 29.8 in ESE 11.5 mph 11.5 mph 53 % 0 in
16:53 68.2 °F 50.4 °F 29.8 in ESE 6.9 mph 6.9 mph 53 % 0 in
16:58 68.2 °F 50.4 °F 29.9 in ESE 12.7 mph 12.7 mph 53 % 0 in
17:03 68.2 °F 50.9 °F 29.9 in ESE 8.1 mph 8.1 mph 54 % 0 in
17:08 68.2 °F 50.4 °F 29.9 in ENE 12.7 mph 12.7 mph 53 % 0 in
17:13 68 °F 50.2 °F 29.9 in East 11.5 mph 11.5 mph 53 % 0 in
17:18 67.8 °F 50.2 °F 29.9 in NE 10.4 mph 10.4 mph 53 % 0 in
17:23 68.2 °F 50.4 °F 29.9 in ESE 5.8 mph 5.8 mph 53 % 0 in
17:28 68 °F 50.2 °F 29.9 in ESE 6.9 mph 6.9 mph 53 % 0 in
17:33 67.6 °F 49.8 °F 29.9 in East 9.2 mph 9.2 mph 53 % 0 in
17:38 68.2 °F 50.4 °F 29.9 in ENE 11.5 mph 11.5 mph 53 % 0 in
17:43 67.3 °F 49.6 °F 29.8 in East 9.2 mph 9.2 mph 53 % 0 in
17:48 67.5 °F 49.3 °F 29.8 in NNW 8.1 mph 8.1 mph 52 % 0 in
17:53 67.3 °F 48.9 °F 29.8 in ENE 10.4 mph 10.4 mph 52 % 0 in
17:58 67.3 °F 48.9 °F 29.9 in ENE 9.2 mph 9.2 mph 52 % 0 in
18:03 66.9 °F 48.7 °F 29.9 in NNE 8.1 mph 8.1 mph 52 % 0 in
18:08 66.9 °F 48.7 °F 29.9 in ENE 6.9 mph 6.9 mph 52 % 0 in
18:13 66.7 °F 48 °F 29.9 in East 13.8 mph 13.8 mph 51 % 0 in
18:18 66.7 °F 48 °F 29.9 in ESE 8.1 mph 8.1 mph 51 % 0 in
18:23 66.4 °F 47.7 °F 29.9 in ENE 9.2 mph 9.2 mph 51 % 0 in
18:28 66.2 °F 47.5 °F 29.9 in NE 9.2 mph 9.2 mph 51 % 0 in
18:33 65.8 °F 47.7 °F 29.9 in East 10.9 mph 10.9 mph 52 % 0 in
18:38 65.7 °F 48 °F 29.9 in ENE 10.4 mph 10.4 mph 53 % 0 in
18:44 65.5 °F 48.4 °F 29.9 in ENE 6.9 mph 6.9 mph 54 % 0 in
18:49 65.7 °F 48.6 °F 29.9 in ESE 5.8 mph 5.8 mph 54 % 0 in
18:54 65.3 °F 48.7 °F 29.9 in ENE 12.7 mph 12.7 mph 55 % 0 in
18:59 65.1 °F 48.6 °F 29.8 in North 6 mph 6 mph 55 % 0 in
19:04 65.3 °F 49.3 °F 29.8 in ESE 6.9 mph 7.4 mph 56 % 0 in
19:09 65.1 °F 48.9 °F 29.8 in NE 6.9 mph 6.9 mph 56 % 0 in
19:14 65.1 °F 48.9 °F 29.8 in East 12.7 mph 12.7 mph 56 % 0 in
19:15 60.8 °F 44.4 °F 29.8 in NE 3 mph 3 mph 55 % 0 in
19:19 64.9 °F 48.4 °F 29.8 in ENE 10.4 mph 10.4 mph 55 % 0 in
19:24 64.9 °F 47.8 °F 29.8 in ENE 10.4 mph 10.4 mph 54 % 0 in
19:29 65.1 °F 48 °F 29.8 in ESE 5.9 mph 5.9 mph 54 % 0 in
19:34 64.9 °F 47.8 °F 29.8 in ESE 10.4 mph 10.4 mph 54 % 0 in
19:40 64.9 °F 47.8 °F 29.8 in East 6 mph 10 mph 54 % 0 in
19:45 64.8 °F 47.7 °F 29.8 in ENE 10.4 mph 10.4 mph 54 % 0 in
19:50 64.6 °F 47.7 °F 29.8 in ENE 5 mph 7 mph 54 % 0 in
19:55 64.2 °F 47.1 °F 29.8 in East 7.6 mph 7.6 mph 54 % 0 in
20:00 64.2 °F 46.8 °F 29.8 in ESE 10.4 mph 10.4 mph 53 % 0 in
20:05 63.9 °F 46.4 °F 29.8 in ENE 9.2 mph 9.2 mph 53 % 0 in
20:10 63.9 °F 46.4 °F 29.8 in East 8.1 mph 8.1 mph 53 % 0 in
20:15 63.7 °F 46.2 °F 29.8 in ENE 6 mph 10 mph 53 % 0 in
20:20 63.7 °F 46.2 °F 29.8 in NE 6.9 mph 6.9 mph 53 % 0 in
20:25 63.7 °F 46.2 °F 29.8 in East 8.1 mph 8.1 mph 53 % 0 in
20:30 63.5 °F 46 °F 29.8 in ESE 3.5 mph 3.5 mph 53 % 0 in
20:35 63.3 °F 45.9 °F 29.8 in ESE 5.8 mph 5.8 mph 53 % 0 in
20:40 63.3 °F 45.9 °F 29.8 in ENE 4.7 mph 4.7 mph 53 % 0 in
20:45 63.3 °F 45.3 °F 29.8 in ESE 6.9 mph 6.9 mph 52 % 0 in
20:50 63.1 °F 45.1 °F 29.8 in East 7.4 mph 7.4 mph 52 % 0 in
20:55 63.1 °F 45.1 °F 29.8 in East 6.9 mph 6.9 mph 52 % 0 in
21:00 63 °F 45.1 °F 29.8 in East 5.8 mph 5.8 mph 52 % 0 in
21:05 62.8 °F 45 °F 29.8 in ENE 4.6 mph 4.6 mph 52 % 0 in
21:10 62.8 °F 45 °F 29.8 in ENE 6.2 mph 6.2 mph 52 % 0 in
21:15 62.6 °F 44.8 °F 29.8 in NNE 5.8 mph 5.8 mph 52 % 0 in
21:21 62.8 °F 44.4 °F 29.8 in NNE 4.6 mph 4.6 mph 51 % 0 in
21:25 58.8 °F 45.3 °F 29.8 in Calm   3 mph 61 % 0 in
21:26 62.8 °F 44.4 °F 29.8 in ENE 4.6 mph 4.6 mph 51 % 0 in
21:31 62.6 °F 44.2 °F 29.8 in NE 4.6 mph 4.6 mph 51 % 0 in
21:35 58.6 °F 45.1 °F 29.8 in Calm     61 % 0 in
21:36 62.4 °F 44.6 °F 29.8 in NNE 6.2 mph 6.2 mph 52 % 0 in
21:41 62.4 °F 44.6 °F 29.9 in NNE 5.8 mph 5.8 mph 52 % 0 in
21:45 58.5 °F 45.1 °F 29.8 in SW 1 mph 2 mph 61 % 0 in
21:46 62.2 °F 45 °F 29.9 in NE 5.8 mph 5.8 mph 53 % 0 in
21:52 62.1 °F 44.8 °F 29.9 in NNE 5.8 mph 5.8 mph 53 % 0 in
21:55 58.5 °F 45.5 °F 29.8 in Calm   1 mph 62 % 0 in
21:57 61.9 °F 44.6 °F 29.9 in NE 5.8 mph 5.8 mph 53 % 0 in
22:02 61.7 °F 44.4 °F 29.9 in NNE 3.5 mph 3.5 mph 53 % 0 in
22:05 58.3 °F 45.3 °F 29.8 in Calm   2 mph 62 % 0 in
22:07 61.7 °F 45 °F 29.9 in NNE 5.8 mph 5.8 mph 54 % 0 in
22:12 61.7 °F 45 °F 29.9 in NNW 5.8 mph 5.8 mph 54 % 0 in
22:15 58.3 °F 45.3 °F 29.8 in WNW 2 mph 2 mph 62 % 0 in
22:17 61.5 °F 44.8 °F 29.9 in NE 5.8 mph 5.8 mph 54 % 0 in
22:22 61.3 °F 45 °F 29.9 in ENE 5.9 mph 5.9 mph 55 % 0 in
22:25 58.1 °F 45.7 °F 29.8 in Calm   1 mph 63 % 0 in
22:28 61.2 °F 45 °F 29.8 in NNE 5.8 mph 5.8 mph 55 % 0 in
22:33 61 °F 44.8 °F 29.8 in NNE 7.4 mph 7.4 mph 55 % 0 in
22:35 57.7 °F 45.1 °F 29.8 in Calm   1 mph 63 % 0 in
22:38 61 °F 44.8 °F 29.8 in East 3.5 mph 3.5 mph 55 % 0 in
22:43 61 °F 44.8 °F 29.9 in ENE 4.6 mph 4.6 mph 55 % 0 in
22:45 57.6 °F 45.1 °F 29.8 in West 1 mph 2 mph 63 % 0 in
22:48 61.2 °F 45.3 °F 29.9 in NE 3.5 mph 3.5 mph 56 % 0 in
22:54 61.2 °F 45.3 °F 29.9 in NNE 4.3 mph 4.3 mph 56 % 0 in
22:55 57.4 °F 45 °F 29.8 in West 1 mph 2 mph 63 % 0 in
22:59 61.2 °F 45 °F 29.9 in ENE 5.8 mph 5.8 mph 55 % 0 in
23:04 61.2 °F 45 °F 29.9 in ENE 4.6 mph 4.6 mph 55 % 0 in
23:05 57.2 °F 44.8 °F 29.8 in West 1 mph 2 mph 63 % 0 in
23:09 61.2 °F 45 °F 29.9 in NE 5.9 mph 5.9 mph 55 % 0 in
23:14 61 °F 44.8 °F 29.8 in NNE 5.8 mph 5.8 mph 55 % 0 in
23:15 57.2 °F 45.1 °F 29.8 in West 1 mph 2 mph 64 % 0 in
23:19 60.8 °F 44.4 °F 29.8 in NE 4.6 mph 4.6 mph 55 % 0 in
23:24 60.8 °F 44.4 °F 29.8 in ENE 6.9 mph 6.9 mph 55 % 0 in
23:25 56.7 °F 44.6 °F 29.8 in WSW 2 mph 2 mph 64 % 0 in
23:29 60.8 °F 44.4 °F 29.8 in NNE 4.7 mph 4.7 mph 55 % 0 in
23:34 60.8 °F 44.4 °F 29.8 in ESE 4.6 mph 4.6 mph 55 % 0 in
23:35 55.9 °F 44.2 °F 29.8 in Calm   2 mph 65 % 0 in
23:39 60.8 °F 44.4 °F 29.8 in NNE 3.6 mph 3.6 mph 55 % 0 in
23:44 60.8 °F 44.4 °F 29.8 in NNE 5.8 mph 5.8 mph 55 % 0 in
23:45 55.8 °F 44.6 °F 29.8 in SW 2 mph 2 mph 66 % 0 in
23:49 60.8 °F 44.4 °F 29.8 in NE 4.6 mph 4.6 mph 55 % 0 in
23:54 60.8 °F 44.4 °F 29.8 in NNE 3.6 mph 3.6 mph 55 % 0 in
23:55 56.1 °F 45 °F 29.8 in SW 2 mph 3 mph 66 % 0 in
23:59 60.8 °F 44.4 °F 29.8 in NE 4.6 mph 4.6 mph 55 % 0 in
Meteo Sesrovires
Elogis d' Weather Underground - 3.75 mb

Guio original per  Jim McMurry - jmcmurry@mwt.net Adaptat per a la plantilla per  Wim van der Kuil - Leuven-Template.eu

Trobareu la nostra informacio del temps tambe a:

Weather Underground

AWEKAS